sensor_id;sensor_type;location;lat;lon;timestamp;P1;durP1;ratioP1;P2;durP2;ratioP2
32329;SDS011;18807;52.434;13.238;2023-09-18T00:01:07;9.03;;;7.80;;
32329;SDS011;18807;52.434;13.238;2023-09-18T00:08:42;9.63;;;8.63;;
32329;SDS011;18807;52.434;13.238;2023-09-18T00:16:18;8.05;;;7.25;;
32329;SDS011;18807;52.434;13.238;2023-09-18T00:23:52;8.73;;;7.82;;
32329;SDS011;18807;52.434;13.238;2023-09-18T00:31:28;8.40;;;7.60;;
32329;SDS011;18807;52.434;13.238;2023-09-18T00:39:02;8.10;;;7.30;;
32329;SDS011;18807;52.434;13.238;2023-09-18T00:46:38;8.57;;;7.07;;
32329;SDS011;18807;52.434;13.238;2023-09-18T00:54:13;8.55;;;7.75;;
32329;SDS011;18807;52.434;13.238;2023-09-18T01:01:53;8.85;;;7.43;;
32329;SDS011;18807;52.434;13.238;2023-09-18T01:09:29;10.90;;;7.60;;
32329;SDS011;18807;52.434;13.238;2023-09-18T01:17:07;7.68;;;6.88;;
32329;SDS011;18807;52.434;13.238;2023-09-18T01:24:48;7.22;;;6.53;;
32329;SDS011;18807;52.434;13.238;2023-09-18T01:32:23;9.10;;;6.85;;
32329;SDS011;18807;52.434;13.238;2023-09-18T01:40:04;7.63;;;6.82;;
32329;SDS011;18807;52.434;13.238;2023-09-18T01:47:40;8.60;;;7.70;;
32329;SDS011;18807;52.434;13.238;2023-09-18T01:55:17;7.50;;;6.80;;
32329;SDS011;18807;52.434;13.238;2023-09-18T02:02:51;9.10;;;8.05;;
32329;SDS011;18807;52.434;13.238;2023-09-18T02:10:50;9.32;;;7.20;;
32329;SDS011;18807;52.434;13.238;2023-09-18T02:18:28;8.82;;;7.38;;
32329;SDS011;18807;52.434;13.238;2023-09-18T02:26:04;9.50;;;7.60;;
32329;SDS011;18807;52.434;13.238;2023-09-18T02:33:38;7.82;;;7.03;;
32329;SDS011;18807;52.434;13.238;2023-09-18T02:41:15;8.10;;;7.13;;
32329;SDS011;18807;52.434;13.238;2023-09-18T02:48:49;8.43;;;7.28;;
32329;SDS011;18807;52.434;13.238;2023-09-18T02:56:26;7.63;;;6.90;;
32329;SDS011;18807;52.434;13.238;2023-09-18T03:04:00;7.03;;;6.32;;
32329;SDS011;18807;52.434;13.238;2023-09-18T03:11:36;7.17;;;6.17;;
32329;SDS011;18807;52.434;13.238;2023-09-18T03:19:11;9.20;;;6.85;;
32329;SDS011;18807;52.434;13.238;2023-09-18T03:26:48;8.27;;;7.38;;
32329;SDS011;18807;52.434;13.238;2023-09-18T03:34:23;8.75;;;7.15;;
32329;SDS011;18807;52.434;13.238;2023-09-18T03:42:01;8.93;;;7.25;;
32329;SDS011;18807;52.434;13.238;2023-09-18T03:49:36;8.93;;;6.78;;
32329;SDS011;18807;52.434;13.238;2023-09-18T03:57:13;8.37;;;6.90;;
32329;SDS011;18807;52.434;13.238;2023-09-18T04:04:48;7.88;;;7.07;;
32329;SDS011;18807;52.434;13.238;2023-09-18T04:12:25;8.88;;;7.10;;
32329;SDS011;18807;52.434;13.238;2023-09-18T04:20:00;7.88;;;6.75;;
32329;SDS011;18807;52.434;13.238;2023-09-18T04:27:38;8.88;;;7.00;;
32329;SDS011;18807;52.434;13.238;2023-09-18T04:35:13;9.00;;;8.00;;
32329;SDS011;18807;52.434;13.238;2023-09-18T04:42:50;9.38;;;6.90;;
32329;SDS011;18807;52.434;13.238;2023-09-18T04:50:25;9.00;;;7.53;;
32329;SDS011;18807;52.434;13.238;2023-09-18T04:58:02;8.18;;;7.38;;
32329;SDS011;18807;52.434;13.238;2023-09-18T05:05:37;8.15;;;7.15;;
32329;SDS011;18807;52.434;13.238;2023-09-18T05:13:16;9.18;;;7.85;;
32329;SDS011;18807;52.434;13.238;2023-09-18T05:20:50;8.68;;;7.78;;
32329;SDS011;18807;52.434;13.238;2023-09-18T05:28:26;14.70;;;8.80;;
32329;SDS011;18807;52.434;13.238;2023-09-18T05:36:01;7.88;;;7.05;;
32329;SDS011;18807;52.434;13.238;2023-09-18T05:43:40;8.50;;;7.60;;
32329;SDS011;18807;52.434;13.238;2023-09-18T05:51:14;11.07;;;8.38;;
32329;SDS011;18807;52.434;13.238;2023-09-18T05:58:49;8.83;;;7.67;;
32329;SDS011;18807;52.434;13.238;2023-09-18T06:06:26;11.60;;;9.25;;
32329;SDS011;18807;52.434;13.238;2023-09-18T06:14:01;9.87;;;8.60;;
32329;SDS011;18807;52.434;13.238;2023-09-18T06:21:36;10.02;;;8.73;;
32329;SDS011;18807;52.434;13.238;2023-09-18T06:29:16;11.23;;;8.63;;
32329;SDS011;18807;52.434;13.238;2023-09-18T06:36:54;12.23;;;7.97;;
32329;SDS011;18807;52.434;13.238;2023-09-18T06:44:31;12.38;;;8.93;;
32329;SDS011;18807;52.434;13.238;2023-09-18T06:52:07;9.27;;;7.78;;
32329;SDS011;18807;52.434;13.238;2023-09-18T06:59:43;10.05;;;7.78;;
32329;SDS011;18807;52.434;13.238;2023-09-18T07:07:18;9.00;;;7.80;;
32329;SDS011;18807;52.434;13.238;2023-09-18T07:15:00;8.45;;;7.65;;
32329;SDS011;18807;52.434;13.238;2023-09-18T07:22:37;8.25;;;7.00;;
32329;SDS011;18807;52.434;13.238;2023-09-18T07:30:14;8.98;;;7.50;;
32329;SDS011;18807;52.434;13.238;2023-09-18T07:38:04;7.43;;;6.57;;
32329;SDS011;18807;52.434;13.238;2023-09-18T07:45:44;8.35;;;6.93;;
32329;SDS011;18807;52.434;13.238;2023-09-18T07:53:18;8.93;;;6.57;;
32329;SDS011;18807;52.434;13.238;2023-09-18T08:00:55;9.07;;;6.55;;
32329;SDS011;18807;52.434;13.238;2023-09-18T08:08:32;7.60;;;6.20;;
32329;SDS011;18807;52.434;13.238;2023-09-18T08:16:08;7.60;;;6.30;;
32329;SDS011;18807;52.434;13.238;2023-09-18T08:23:42;7.25;;;6.03;;
32329;SDS011;18807;52.434;13.238;2023-09-18T08:31:19;7.28;;;6.13;;
32329;SDS011;18807;52.434;13.238;2023-09-18T08:38:53;7.32;;;5.63;;
32329;SDS011;18807;52.434;13.238;2023-09-18T08:54:05;6.55;;;5.85;;
32329;SDS011;18807;52.434;13.238;2023-09-18T09:01:42;9.27;;;6.32;;
32329;SDS011;18807;52.434;13.238;2023-09-18T09:09:17;8.05;;;5.00;;
32329;SDS011;18807;52.434;13.238;2023-09-18T09:16:55;6.45;;;5.88;;
32329;SDS011;18807;52.434;13.238;2023-09-18T09:24:38;6.65;;;5.72;;
32329;SDS011;18807;52.434;13.238;2023-09-18T09:32:17;6.53;;;5.93;;
32329;SDS011;18807;52.434;13.238;2023-09-18T09:39:53;6.68;;;5.18;;
32329;SDS011;18807;52.434;13.238;2023-09-18T09:55:08;7.13;;;5.55;;
32329;SDS011;18807;52.434;13.238;2023-09-18T10:02:56;7.25;;;5.68;;
32329;SDS011;18807;52.434;13.238;2023-09-18T10:10:35;6.78;;;5.18;;
32329;SDS011;18807;52.434;13.238;2023-09-18T10:18:18;5.95;;;5.30;;
32329;SDS011;18807;52.434;13.238;2023-09-18T10:26:00;6.65;;;5.20;;
32329;SDS011;18807;52.434;13.238;2023-09-18T10:33:39;7.53;;;5.50;;
32329;SDS011;18807;52.434;13.238;2023-09-18T10:41:14;5.90;;;5.20;;
32329;SDS011;18807;52.434;13.238;2023-09-18T10:48:52;6.28;;;5.78;;
32329;SDS011;18807;52.434;13.238;2023-09-18T10:56:28;6.22;;;5.63;;
32329;SDS011;18807;52.434;13.238;2023-09-18T11:04:19;8.02;;;5.70;;
32329;SDS011;18807;52.434;13.238;2023-09-18T11:11:54;6.70;;;6.05;;
32329;SDS011;18807;52.434;13.238;2023-09-18T11:19:38;6.78;;;6.18;;
32329;SDS011;18807;52.434;13.238;2023-09-18T11:27:15;6.65;;;5.88;;
32329;SDS011;18807;52.434;13.238;2023-09-18T11:35:07;5.85;;;5.32;;
32329;SDS011;18807;52.434;13.238;2023-09-18T11:50:59;5.38;;;4.63;;
32329;SDS011;18807;52.434;13.238;2023-09-18T11:58:55;5.05;;;4.63;;
32329;SDS011;18807;52.434;13.238;2023-09-18T12:06:39;5.07;;;4.57;;
32329;SDS011;18807;52.434;13.238;2023-09-18T12:14:18;5.97;;;4.97;;
32329;SDS011;18807;52.434;13.238;2023-09-18T12:21:57;6.80;;;4.80;;
32329;SDS011;18807;52.434;13.238;2023-09-18T12:29:32;4.75;;;4.35;;
32329;SDS011;18807;52.434;13.238;2023-09-18T12:44:45;7.20;;;4.72;;
32329;SDS011;18807;52.434;13.238;2023-09-18T12:52:23;9.52;;;4.63;;
32329;SDS011;18807;52.434;13.238;2023-09-18T12:59:58;4.72;;;4.13;;
32329;SDS011;18807;52.434;13.238;2023-09-18T13:07:44;4.57;;;4.15;;
32329;SDS011;18807;52.434;13.238;2023-09-18T13:15:24;5.10;;;4.57;;
32329;SDS011;18807;52.434;13.238;2023-09-18T13:23:02;5.07;;;4.57;;
32329;SDS011;18807;52.434;13.238;2023-09-18T13:30:37;5.80;;;4.70;;
32329;SDS011;18807;52.434;13.238;2023-09-18T13:38:14;5.25;;;4.35;;
32329;SDS011;18807;52.434;13.238;2023-09-18T13:45:49;4.85;;;4.32;;
32329;SDS011;18807;52.434;13.238;2023-09-18T13:53:27;6.22;;;5.35;;
32329;SDS011;18807;52.434;13.238;2023-09-18T14:01:02;5.70;;;4.60;;
32329;SDS011;18807;52.434;13.238;2023-09-18T14:08:39;6.75;;;4.65;;
32329;SDS011;18807;52.434;13.238;2023-09-18T14:16:14;5.95;;;4.63;;
32329;SDS011;18807;52.434;13.238;2023-09-18T14:23:50;6.10;;;3.67;;
32329;SDS011;18807;52.434;13.238;2023-09-18T14:31:25;4.85;;;3.63;;
32329;SDS011;18807;52.434;13.238;2023-09-18T14:39:02;4.40;;;2.70;;
32329;SDS011;18807;52.434;13.238;2023-09-18T14:46:37;5.68;;;3.08;;
32329;SDS011;18807;52.434;13.238;2023-09-18T14:54:13;3.13;;;2.63;;
32329;SDS011;18807;52.434;13.238;2023-09-18T15:01:49;4.88;;;2.78;;
32329;SDS011;18807;52.434;13.238;2023-09-18T15:09:25;5.07;;;2.95;;
32329;SDS011;18807;52.434;13.238;2023-09-18T15:17:00;4.10;;;2.72;;
32329;SDS011;18807;52.434;13.238;2023-09-18T15:24:36;4.23;;;3.17;;
32329;SDS011;18807;52.434;13.238;2023-09-18T15:32:10;5.05;;;3.15;;
32329;SDS011;18807;52.434;13.238;2023-09-18T15:39:48;5.68;;;3.13;;
32329;SDS011;18807;52.434;13.238;2023-09-18T15:47:24;4.78;;;3.10;;
32329;SDS011;18807;52.434;13.238;2023-09-18T15:55:04;6.38;;;3.42;;
32329;SDS011;18807;52.434;13.238;2023-09-18T16:02:39;8.60;;;3.58;;
32329;SDS011;18807;52.434;13.238;2023-09-18T16:10:18;6.93;;;4.05;;
32329;SDS011;18807;52.434;13.238;2023-09-18T16:17:53;8.43;;;3.47;;
32329;SDS011;18807;52.434;13.238;2023-09-18T16:25:30;7.32;;;3.75;;
32329;SDS011;18807;52.434;13.238;2023-09-18T16:33:07;5.65;;;4.28;;
32329;SDS011;18807;52.434;13.238;2023-09-18T16:40:44;7.32;;;4.45;;
32329;SDS011;18807;52.434;13.238;2023-09-18T16:48:18;8.00;;;3.72;;
32329;SDS011;18807;52.434;13.238;2023-09-18T16:55:54;8.10;;;4.35;;
32329;SDS011;18807;52.434;13.238;2023-09-18T17:03:29;6.72;;;4.07;;
32329;SDS011;18807;52.434;13.238;2023-09-18T17:11:06;7.45;;;4.15;;
32329;SDS011;18807;52.434;13.238;2023-09-18T17:18:40;8.35;;;3.80;;
32329;SDS011;18807;52.434;13.238;2023-09-18T17:26:21;6.15;;;3.63;;
32329;SDS011;18807;52.434;13.238;2023-09-18T17:33:55;4.93;;;3.28;;
32329;SDS011;18807;52.434;13.238;2023-09-18T17:41:33;4.18;;;3.70;;
32329;SDS011;18807;52.434;13.238;2023-09-18T17:49:08;8.95;;;4.05;;
32329;SDS011;18807;52.434;13.238;2023-09-18T17:57:06;5.93;;;3.80;;
32329;SDS011;18807;52.434;13.238;2023-09-18T18:04:43;4.55;;;4.10;;
32329;SDS011;18807;52.434;13.238;2023-09-18T18:12:20;4.88;;;4.38;;
32329;SDS011;18807;52.434;13.238;2023-09-18T18:19:54;7.25;;;4.50;;
32329;SDS011;18807;52.434;13.238;2023-09-18T18:35:07;3.85;;;3.45;;
32329;SDS011;18807;52.434;13.238;2023-09-18T18:42:44;7.03;;;2.80;;
32329;SDS011;18807;52.434;13.238;2023-09-18T18:50:20;4.38;;;3.47;;
32329;SDS011;18807;52.434;13.238;2023-09-18T18:57:58;3.25;;;2.95;;
32329;SDS011;18807;52.434;13.238;2023-09-18T19:05:32;4.80;;;2.80;;
32329;SDS011;18807;52.434;13.238;2023-09-18T19:13:10;4.70;;;3.00;;
32329;SDS011;18807;52.434;13.238;2023-09-18T19:21:02;4.47;;;2.90;;
32329;SDS011;18807;52.434;13.238;2023-09-18T19:28:41;5.25;;;3.13;;
32329;SDS011;18807;52.434;13.238;2023-09-18T19:36:15;4.13;;;3.15;;
32329;SDS011;18807;52.434;13.238;2023-09-18T19:43:53;4.50;;;2.70;;
32329;SDS011;18807;52.434;13.238;2023-09-18T19:51:29;4.18;;;2.90;;
32329;SDS011;18807;52.434;13.238;2023-09-18T19:59:06;3.13;;;2.38;;
32329;SDS011;18807;52.434;13.238;2023-09-18T20:06:42;4.50;;;2.75;;
32329;SDS011;18807;52.434;13.238;2023-09-18T20:14:18;2.95;;;2.25;;
32329;SDS011;18807;52.434;13.238;2023-09-18T20:22:03;4.88;;;3.03;;
32329;SDS011;18807;52.434;13.238;2023-09-18T20:29:42;5.75;;;3.03;;
32329;SDS011;18807;52.434;13.238;2023-09-18T20:37:20;3.33;;;2.70;;
32329;SDS011;18807;52.434;13.238;2023-09-18T20:44:56;3.92;;;2.38;;
32329;SDS011;18807;52.434;13.238;2023-09-18T20:52:31;4.68;;;2.85;;
32329;SDS011;18807;52.434;13.238;2023-09-18T21:00:10;3.50;;;2.10;;
32329;SDS011;18807;52.434;13.238;2023-09-18T21:07:46;6.50;;;2.10;;
32329;SDS011;18807;52.434;13.238;2023-09-18T21:15:21;2.73;;;2.53;;
32329;SDS011;18807;52.434;13.238;2023-09-18T21:22:59;4.30;;;1.67;;
32329;SDS011;18807;52.434;13.238;2023-09-18T21:30:37;2.90;;;1.83;;
32329;SDS011;18807;52.434;13.238;2023-09-18T21:38:11;2.65;;;2.03;;
32329;SDS011;18807;52.434;13.238;2023-09-18T21:45:47;3.53;;;2.30;;
32329;SDS011;18807;52.434;13.238;2023-09-18T21:53:24;3.97;;;1.90;;
32329;SDS011;18807;52.434;13.238;2023-09-18T22:08:36;3.35;;;1.90;;
32329;SDS011;18807;52.434;13.238;2023-09-18T22:16:15;3.70;;;1.88;;
32329;SDS011;18807;52.434;13.238;2023-09-18T22:23:49;3.85;;;1.67;;
32329;SDS011;18807;52.434;13.238;2023-09-18T22:31:26;3.42;;;1.63;;
32329;SDS011;18807;52.434;13.238;2023-09-18T22:39:02;4.50;;;1.85;;
32329;SDS011;18807;52.434;13.238;2023-09-18T22:54:56;3.92;;;1.83;;
32329;SDS011;18807;52.434;13.238;2023-09-18T23:02:32;2.22;;;1.80;;
32329;SDS011;18807;52.434;13.238;2023-09-18T23:10:17;3.05;;;1.50;;
32329;SDS011;18807;52.434;13.238;2023-09-18T23:17:52;1.83;;;1.50;;
32329;SDS011;18807;52.434;13.238;2023-09-18T23:25:30;1.85;;;1.42;;
32329;SDS011;18807;52.434;13.238;2023-09-18T23:33:06;3.97;;;1.50;;
32329;SDS011;18807;52.434;13.238;2023-09-18T23:40:44;5.03;;;1.77;;
32329;SDS011;18807;52.434;13.238;2023-09-18T23:48:19;3.80;;;1.48;;
32329;SDS011;18807;52.434;13.238;2023-09-18T23:55:57;3.47;;;2.08;;
